PLYK1: Cottonwood River, Plymouth, KS

Data processed at Thu May 23 2019 23:50


All information presented herein is the property of the government of the United States of America and may be revised or deleted at any time without prior notice.
Dissemination of this information without the expressed written consent of the Public Affairs Office, Tulsa District U.S. Army Corps of Engineers is strictly prohibited.
These data are gathered electronically and, as presented, have not undergone any form of quality control. These data are not guaranteed to be valid or correct.
Go to home page.
Go to station list.
Go to home page.

Upstream stations:

Downstream station:
Previous Day
Next Day
Current Day
    
SHEF ID:       PLYK1     COTTONWOOD R NR PLYMOUTH, KS
STATION TYPE:  
Regulating: Stage =    28.00, Flow =    10752

               PRECIP     STAGE  STAGE(2)  RIV-FLOW  BAT-LOAD
                   in        ft        ft       cfs      volt
              Ccp-Rev   Ccp-Rev   Ccp-Rev   Ccp-Rev   Ccp-Rev
(US/Central)
05/23 00:00      0.00     33.78     34.00     26948     12.95
05/23 01:00      0.00     33.80     33.98     27275     12.95
05/23 02:00      0.00     33.79     33.94     27111     12.89
05/23 03:00      0.00     33.78     33.93     26948     12.89
05/23 04:00      0.00     33.75     33.91     26465     12.89
05/23 05:00      0.00     33.69     33.91     25523     12.89
05/23 06:00      0.00     33.72     33.88     25990     12.89
05/23 07:00      0.00     33.69     33.85     25523     12.89
05/23 08:00      0.00     33.62     33.82     24465     12.83
05/23 09:00      0.00     33.65     33.81     24914     13.00
05/23 10:00      0.00     33.61     33.78     24318     13.36
05/23 11:00      0.00     33.58     33.75     23879     13.77
05/23 12:00      0.00     33.57     33.73     23735     13.77
05/23 13:00      0.00     33.54     33.71     23307     13.59
05/23 14:00      0.00     33.51     33.69     22886     13.59
05/23 15:00      0.00     33.48     33.65     22473     13.59
05/23 16:00      0.00     33.46     33.63     22201     13.53
05/23 17:00      0.00     33.42     33.61     21667     13.48
05/23 18:00      0.00     33.38     33.60     21145     13.53
05/23 19:00      0.00     33.34     33.60     20635     13.24
05/23 20:00      0.00     33.31     33.52     20330     13.00
05/23 21:00      0.00     33.30     33.42     20276     13.00
05/23 22:00      0.00     33.22     33.41     19850     13.00
05/23 23:00      0.00     33.18     33.32     19640     12.95